PWSweather.com
Personal Weather Stations
Station Observations
KPASPRIN10
East Vincent, East Vincent, PA 19475

East VincentEast Vincent, PA 19475

Lat: 40.170948, Lon: -75.629681

Elevation: 404

Station Type: Davis VP2

http://www.evweather.com

Latest ConditionsUpdated 4:40:02 PM EDT Wednesday, Apr 24, 2019
Currently Today's Max Today's Min Today's Average
Temperature 69.3°F20.7°C 69.9°F21.1°C 57.3°F14.1°C 63.1°F17.3°C
Dew Point 43.9°F6.6°C 56.2°F13.4°C 43.1°F6.2°C 49.5°F9.7°C
Winds 8.1 mph NNW13.0 kmh NNW 11.5 mph -18.5 kmh - - 6.7 mph 10.8 kmh
Wind Gusts 12.7 mph20.4 kmh 19.6 mph31.5 kmh - -
Humidity 40% 84% 40% 62%
Pressure 29.77 in1008.1 mb 29.81 in1009.5 mb 29.69 in1005.4 mb -
Hour Temp Dew Point Humidity Winds Wind Gusts Pressure Precip Precip Rate Daily Precip Total
04:40 PM 69.3°F20.7°C 43.9°F6.6°C 40% 8.1 mph NNW13.0 kmh NNW 12.7 mph20.4 kmh 29.77 in1008.1 mb - 0.00 in0.0 mm 0.00 in0.0 mm
04:30 PM 69.6°F20.9°C 47.3°F8.5°C 45% 9.2 mph NW14.8 kmh NW 12.7 mph20.4 kmh 29.78 in1008.5 mb - 0.00 in0.0 mm 0.00 in0.0 mm
04:20 PM 69.9°F21.1°C 46.4°F8.0°C 43% 3.5 mph W5.6 kmh W 10.4 mph16.7 kmh 29.77 in1008.1 mb - 0.00 in0.0 mm 0.00 in0.0 mm
04:10 PM 69.4°F20.8°C 45.3°F7.4°C 42% 6.9 mph NW11.1 kmh NW 12.7 mph20.4 kmh 29.78 in1008.5 mb - 0.00 in0.0 mm 0.00 in0.0 mm
04:00 PM 69.8°F21.0°C 45.7°F7.6°C 42% 10.4 mph NW16.7 kmh NW 13.8 mph22.2 kmh 29.78 in1008.5 mb - 0.00 in0.0 mm 0.00 in0.0 mm
03:50 PM 69.3°F20.7°C 46.5°F8.1°C 44% 11.5 mph W18.5 kmh W 13.8 mph22.2 kmh 29.78 in1008.5 mb - 0.00 in0.0 mm 0.00 in0.0 mm
03:40 PM 69.4°F20.8°C 45.3°F7.4°C 42% 8.1 mph NW13.0 kmh NW 15.0 mph24.1 kmh 29.77 in1008.1 mb - 0.00 in0.0 mm 0.00 in0.0 mm
03:30 PM 69.4°F20.8°C 48.2°F9.0°C 47% 5.8 mph W9.3 kmh W 5.8 mph9.3 kmh 29.78 in1008.5 mb - 0.00 in0.0 mm 0.00 in0.0 mm
03:20 PM 69.3°F20.7°C 44.6°F7.0°C 41% 9.2 mph NNW14.8 kmh NNW 11.5 mph18.5 kmh 29.78 in1008.5 mb - 0.00 in0.0 mm 0.00 in0.0 mm
03:10 PM 68.6°F20.3°C 43.3°F6.3°C 40% 5.8 mph NW9.3 kmh NW 10.4 mph16.7 kmh 29.78 in1008.5 mb - 0.00 in0.0 mm 0.00 in0.0 mm
03:00 PM 67.9°F19.9°C 44.6°F7.0°C 43% 5.8 mph NW9.3 kmh NW 8.1 mph13.0 kmh 29.78 in1008.5 mb - 0.00 in0.0 mm 0.00 in0.0 mm
02:50 PM 69.0°F20.6°C 46.2°F7.9°C 44% 8.1 mph NNW13.0 kmh NNW 17.3 mph27.8 kmh 29.78 in1008.5 mb - 0.00 in0.0 mm 0.00 in0.0 mm
02:40 PM 68.1°F20.1°C 47.7°F8.7°C 48% 5.8 mph NW9.3 kmh NW 9.2 mph14.8 kmh 29.78 in1008.5 mb - 0.00 in0.0 mm 0.00 in0.0 mm
02:30 PM 68.0°F20.0°C 46.5°F8.1°C 46% 8.1 mph NW13.0 kmh NW 10.4 mph16.7 kmh 29.78 in1008.5 mb - 0.00 in0.0 mm 0.00 in0.0 mm
02:20 PM 67.4°F19.7°C 44.8°F7.1°C 44% 9.2 mph NNW14.8 kmh NNW 11.5 mph18.5 kmh 29.79 in1008.8 mb - 0.00 in0.0 mm 0.00 in0.0 mm
02:10 PM 67.2°F19.6°C 46.2°F7.9°C 47% 5.8 mph NW9.3 kmh NW 6.9 mph11.1 kmh 29.79 in1008.8 mb - 0.00 in0.0 mm 0.00 in0.0 mm
02:00 PM 67.1°F19.5°C 45.6°F7.6°C 46% 9.2 mph NW14.8 kmh NW 13.8 mph22.2 kmh 29.79 in1008.8 mb - 0.00 in0.0 mm 0.00 in0.0 mm
01:50 PM 66.7°F19.3°C 45.2°F7.3°C 46% 6.9 mph NW11.1 kmh NW 11.5 mph18.5 kmh 29.79 in1008.8 mb - 0.00 in0.0 mm 0.00 in0.0 mm
01:40 PM 66.5°F19.2°C 45.1°F7.3°C 46% 9.2 mph N14.8 kmh N 10.4 mph16.7 kmh 29.79 in1008.8 mb - 0.00 in0.0 mm 0.00 in0.0 mm
01:30 PM 66.7°F19.3°C 48.0°F8.9°C 51% 5.8 mph NW9.3 kmh NW 10.4 mph16.7 kmh 29.79 in1008.8 mb - 0.00 in0.0 mm 0.00 in0.0 mm
01:20 PM 65.8°F18.8°C 46.1°F7.8°C 49% 3.5 mph NW5.6 kmh NW 9.2 mph14.8 kmh 29.80 in1009.1 mb - 0.00 in0.0 mm 0.00 in0.0 mm
01:10 PM 66.1°F18.9°C 44.1°F6.7°C 45% 8.1 mph NNW13.0 kmh NNW 9.2 mph14.8 kmh 29.80 in1009.1 mb - 0.00 in0.0 mm 0.00 in0.0 mm
01:00 PM 65.6°F18.7°C 46.9°F8.3°C 51% 6.9 mph NW11.1 kmh NW 11.5 mph18.5 kmh 29.80 in1009.1 mb - 0.00 in0.0 mm 0.00 in0.0 mm
12:50 PM 64.7°F18.2°C 44.6°F7.0°C 48% 5.8 mph NW9.3 kmh NW 13.8 mph22.2 kmh 29.80 in1009.1 mb - 0.00 in0.0 mm 0.00 in0.0 mm
12:40 PM 64.5°F18.1°C 44.4°F6.9°C 48% 6.9 mph NW11.1 kmh NW 10.4 mph16.7 kmh 29.80 in1009.1 mb - 0.00 in0.0 mm 0.00 in0.0 mm
12:30 PM 64.2°F17.9°C 45.2°F7.3°C 50% 8.1 mph NW13.0 kmh NW 12.7 mph20.4 kmh 29.80 in1009.1 mb - 0.00 in0.0 mm 0.00 in0.0 mm
12:20 PM 63.5°F17.5°C 44.5°F6.9°C 50% 9.2 mph WNW14.8 kmh WNW 11.5 mph18.5 kmh 29.81 in1009.5 mb - 0.00 in0.0 mm 0.00 in0.0 mm
12:10 PM 63.4°F17.4°C 43.9°F6.6°C 49% 11.5 mph NW18.5 kmh NW 16.1 mph25.9 kmh 29.81 in1009.5 mb - 0.00 in0.0 mm 0.00 in0.0 mm
12:00 PM 64.1°F17.8°C 47.1°F8.4°C 54% 5.8 mph W9.3 kmh W 13.8 mph22.2 kmh 29.81 in1009.5 mb - 0.00 in0.0 mm 0.00 in0.0 mm
11:50 AM 63.5°F17.5°C 45.0°F7.2°C 51% 8.1 mph N13.0 kmh N 11.5 mph18.5 kmh 29.80 in1009.1 mb - 0.00 in0.0 mm 0.00 in0.0 mm
11:40 AM 63.1°F17.3°C 47.6°F8.7°C 57% 5.8 mph NW9.3 kmh NW 11.5 mph18.5 kmh 29.81 in1009.5 mb - 0.00 in0.0 mm 0.00 in0.0 mm
11:30 AM 63.3°F17.4°C 47.3°F8.5°C 56% 10.4 mph NW16.7 kmh NW 17.3 mph27.8 kmh 29.81 in1009.5 mb - 0.00 in0.0 mm 0.00 in0.0 mm
11:20 AM 62.0°F16.7°C 45.2°F7.3°C 54% 4.6 mph NW7.4 kmh NW 8.1 mph13.0 kmh 29.81 in1009.5 mb - 0.00 in0.0 mm 0.00 in0.0 mm
11:10 AM 61.9°F16.6°C 45.1°F7.3°C 54% 10.4 mph NW16.7 kmh NW 11.5 mph18.5 kmh 29.81 in1009.5 mb - 0.00 in0.0 mm 0.00 in0.0 mm
11:00 AM 61.2°F16.2°C 44.4°F6.9°C 54% 11.5 mph NW18.5 kmh NW 17.3 mph27.8 kmh 29.81 in1009.5 mb - 0.00 in0.0 mm 0.00 in0.0 mm
10:50 AM 61.1°F16.2°C 45.3°F7.4°C 56% 9.2 mph NW14.8 kmh NW 11.5 mph18.5 kmh 29.81 in1009.5 mb - 0.00 in0.0 mm 0.00 in0.0 mm
10:40 AM 61.0°F16.1°C 43.7°F6.5°C 53% 9.2 mph NW14.8 kmh NW 13.8 mph22.2 kmh 29.81 in1009.5 mb - 0.00 in0.0 mm 0.00 in0.0 mm
10:30 AM 61.5°F16.4°C 44.7°F7.1°C 54% 10.4 mph NW16.7 kmh NW 13.8 mph22.2 kmh 29.81 in1009.5 mb - 0.00 in0.0 mm 0.00 in0.0 mm
10:20 AM 60.9°F16.1°C 43.1°F6.2°C 52% 9.2 mph NW14.8 kmh NW 12.7 mph20.4 kmh 29.80 in1009.1 mb - 0.00 in0.0 mm 0.00 in0.0 mm
10:10 AM 60.2°F15.7°C 44.9°F7.2°C 57% 8.1 mph NW13.0 kmh NW 15.0 mph24.1 kmh 29.80 in1009.1 mb - 0.00 in0.0 mm 0.00 in0.0 mm
10:00 AM 60.3°F15.7°C 45.0°F7.2°C 57% 8.1 mph NW13.0 kmh NW 11.5 mph18.5 kmh 29.80 in1009.1 mb - 0.00 in0.0 mm 0.00 in0.0 mm
09:50 AM 60.1°F15.6°C 44.8°F7.1°C 57% 11.5 mph NW18.5 kmh NW 13.8 mph22.2 kmh 29.80 in1009.1 mb - 0.00 in0.0 mm 0.00 in0.0 mm
09:40 AM 60.3°F15.7°C 46.4°F8.0°C 60% 11.5 mph WNW18.5 kmh WNW 19.6 mph31.5 kmh 29.80 in1009.1 mb - 0.00 in0.0 mm 0.00 in0.0 mm
09:30 AM 60.3°F15.7°C 47.2°F8.4°C 62% 8.1 mph WNW13.0 kmh WNW 11.5 mph18.5 kmh 29.80 in1009.1 mb - 0.00 in0.0 mm 0.00 in0.0 mm
09:20 AM 60.0°F15.6°C 46.5°F8.1°C 61% 6.9 mph NW11.1 kmh NW 8.1 mph13.0 kmh 29.79 in1008.8 mb - 0.00 in0.0 mm 0.00 in0.0 mm
09:10 AM 59.5°F15.3°C 45.6°F7.6°C 60% 6.9 mph WNW11.1 kmh WNW 13.8 mph22.2 kmh 29.79 in1008.8 mb - 0.00 in0.0 mm 0.00 in0.0 mm
09:00 AM 59.7°F15.4°C 45.8°F7.7°C 60% 10.4 mph NW16.7 kmh NW 15.0 mph24.1 kmh 29.79 in1008.8 mb - 0.00 in0.0 mm 0.00 in0.0 mm
08:50 AM 59.9°F15.5°C 46.4°F8.0°C 61% 8.1 mph NW13.0 kmh NW 18.4 mph29.6 kmh 29.79 in1008.8 mb - 0.00 in0.0 mm 0.00 in0.0 mm
08:40 AM 59.3°F15.2°C 46.3°F7.9°C 62% 6.9 mph NW11.1 kmh NW 11.5 mph18.5 kmh 29.79 in1008.8 mb - 0.00 in0.0 mm 0.00 in0.0 mm
08:30 AM 59.5°F15.3°C 48.1°F8.9°C 66% 5.8 mph WNW9.3 kmh WNW 11.5 mph18.5 kmh 29.79 in1008.8 mb - 0.00 in0.0 mm 0.00 in0.0 mm
08:20 AM 58.7°F14.8°C 47.4°F8.6°C 66% 8.1 mph NW13.0 kmh NW 15.0 mph24.1 kmh 29.79 in1008.8 mb - 0.00 in0.0 mm 0.00 in0.0 mm
08:10 AM 58.5°F14.7°C 47.2°F8.4°C 66% 11.5 mph NW18.5 kmh NW 18.4 mph29.6 kmh 29.78 in1008.5 mb - 0.00 in0.0 mm 0.00 in0.0 mm
08:00 AM 58.3°F14.6°C 47.4°F8.6°C 67% 6.9 mph WNW11.1 kmh WNW 12.7 mph20.4 kmh 29.78 in1008.5 mb - 0.00 in0.0 mm 0.00 in0.0 mm
07:50 AM 58.1°F14.5°C 47.6°F8.7°C 68% 8.1 mph WNW13.0 kmh WNW 11.5 mph18.5 kmh 29.77 in1008.1 mb - 0.00 in0.0 mm 0.00 in0.0 mm
07:40 AM 58.1°F14.5°C 48.0°F8.9°C 69% 6.9 mph WNW11.1 kmh WNW 11.5 mph18.5 kmh 29.77 in1008.1 mb - 0.00 in0.0 mm 0.00 in0.0 mm
07:30 AM 57.9°F14.4°C 47.8°F8.8°C 69% 5.8 mph NW9.3 kmh NW 6.9 mph11.1 kmh 29.77 in1008.1 mb - 0.00 in0.0 mm 0.00 in0.0 mm
07:20 AM 57.6°F14.2°C 47.5°F8.6°C 69% 5.8 mph NW9.3 kmh NW 10.4 mph16.7 kmh 29.77 in1008.1 mb - 0.00 in0.0 mm 0.00 in0.0 mm
07:10 AM 57.3°F14.1°C 47.6°F8.7°C 70% 9.2 mph NW14.8 kmh NW 11.5 mph18.5 kmh 29.76 in1007.8 mb - 0.00 in0.0 mm 0.00 in0.0 mm
07:00 AM 57.4°F14.1°C 47.7°F8.7°C 70% 9.2 mph NW14.8 kmh NW 11.5 mph18.5 kmh 29.76 in1007.8 mb - 0.00 in0.0 mm 0.00 in0.0 mm
06:50 AM 57.6°F14.2°C 48.3°F9.1°C 71% 5.8 mph WNW9.3 kmh WNW 13.8 mph22.2 kmh 29.75 in1007.5 mb - 0.00 in0.0 mm 0.00 in0.0 mm
06:40 AM 57.7°F14.3°C 48.4°F9.1°C 71% 9.2 mph W14.8 kmh W 16.1 mph25.9 kmh 29.75 in1007.5 mb - 0.00 in0.0 mm 0.00 in0.0 mm
06:30 AM 58.2°F14.6°C 49.6°F9.8°C 73% 6.9 mph WNW11.1 kmh WNW 9.2 mph14.8 kmh 29.74 in1007.1 mb - 0.00 in0.0 mm 0.00 in0.0 mm
06:20 AM 59.0°F15.0°C 51.5°F10.8°C 76% 9.2 mph WNW14.8 kmh WNW 16.1 mph25.9 kmh 29.74 in1007.1 mb - 0.00 in0.0 mm 0.00 in0.0 mm
06:10 AM 59.7°F15.4°C 53.2°F11.8°C 79% 5.8 mph NW9.3 kmh NW 11.5 mph18.5 kmh 29.73 in1006.8 mb - 0.00 in0.0 mm 0.00 in0.0 mm
06:00 AM 60.6°F15.9°C 53.7°F12.1°C 78% 8.1 mph NW13.0 kmh NW 11.5 mph18.5 kmh 29.72 in1006.4 mb - 0.00 in0.0 mm 0.00 in0.0 mm
05:50 AM 61.2°F16.2°C 54.9°F12.7°C 80% 11.5 mph NW18.5 kmh NW 12.7 mph20.4 kmh 29.71 in1006.1 mb - 0.00 in0.0 mm 0.00 in0.0 mm
05:40 AM 61.7°F16.5°C 55.5°F13.1°C 80% 5.8 mph NW9.3 kmh NW 5.8 mph9.3 kmh 29.71 in1006.1 mb - 0.00 in0.0 mm 0.00 in0.0 mm
05:30 AM 62.3°F16.8°C 55.7°F13.2°C 79% 5.8 mph WNW9.3 kmh WNW 11.5 mph18.5 kmh 29.71 in1006.1 mb - 0.00 in0.0 mm 0.00 in0.0 mm
05:20 AM 62.2°F16.8°C 56.0°F13.3°C 80% 5.8 mph W9.3 kmh W 11.5 mph18.5 kmh 29.70 in1005.8 mb - 0.00 in0.0 mm 0.00 in0.0 mm
05:10 AM 62.1°F16.7°C 56.2°F13.4°C 81% 9.2 mph W14.8 kmh W 11.5 mph18.5 kmh 29.70 in1005.8 mb - 0.00 in0.0 mm 0.00 in0.0 mm
05:00 AM 61.0°F16.1°C 55.8°F13.2°C 83% 5.8 mph WNW9.3 kmh WNW 11.5 mph18.5 kmh 29.70 in1005.8 mb - 0.00 in0.0 mm 0.00 in0.0 mm
04:50 AM 59.9°F15.5°C 55.1°F12.8°C 84% 4.6 mph W7.4 kmh W 6.9 mph11.1 kmh 29.70 in1005.8 mb - 0.00 in0.0 mm 0.00 in0.0 mm
04:40 AM 60.2°F15.7°C 55.0°F12.8°C 83% 3.5 mph W5.6 kmh W 5.8 mph9.3 kmh 29.70 in1005.8 mb - 0.00 in0.0 mm 0.00 in0.0 mm
04:30 AM 60.5°F15.8°C 55.0°F12.8°C 82% 3.5 mph WSW5.6 kmh WSW 5.8 mph9.3 kmh 29.70 in1005.8 mb - 0.00 in0.0 mm 0.00 in0.0 mm
04:20 AM 60.7°F15.9°C 54.9°F12.7°C 81% 3.5 mph WSW5.6 kmh WSW 3.5 mph5.6 kmh 29.70 in1005.8 mb - 0.00 in0.0 mm 0.00 in0.0 mm
04:10 AM 60.7°F15.9°C 54.8°F12.7°C 81% 4.6 mph WSW7.4 kmh WSW 6.9 mph11.1 kmh 29.70 in1005.8 mb - 0.00 in0.0 mm 0.00 in0.0 mm
04:00 AM 60.9°F16.1°C 55.0°F12.8°C 81% 4.6 mph WSW7.4 kmh WSW 3.5 mph5.6 kmh 29.70 in1005.8 mb - 0.00 in0.0 mm 0.00 in0.0 mm
03:50 AM 61.1°F16.2°C 54.9°F12.7°C 80% 3.5 mph WSW5.6 kmh WSW 3.5 mph5.6 kmh 29.70 in1005.8 mb - 0.00 in0.0 mm 0.00 in0.0 mm
03:40 AM 60.8°F16.0°C 55.0°F12.8°C 81% 2.3 mph W3.7 kmh W 5.8 mph9.3 kmh 29.70 in1005.8 mb - 0.00 in0.0 mm 0.00 in0.0 mm
03:30 AM 60.7°F15.9°C 55.1°F12.8°C 82% 3.5 mph NNW5.6 kmh NNW 3.5 mph5.6 kmh 29.70 in1005.8 mb - 0.00 in0.0 mm 0.00 in0.0 mm
03:20 AM 60.9°F16.1°C 54.7°F12.6°C 80% 3.5 mph NW5.6 kmh NW 3.5 mph5.6 kmh 29.70 in1005.8 mb - 0.00 in0.0 mm 0.00 in0.0 mm
03:10 AM 61.8°F16.6°C 54.9°F12.7°C 78% 3.5 mph W5.6 kmh W 6.9 mph11.1 kmh 29.70 in1005.8 mb - 0.00 in0.0 mm 0.00 in0.0 mm
03:00 AM 61.9°F16.6°C 54.6°F12.6°C 77% 2.3 mph WSW3.7 kmh WSW 3.5 mph5.6 kmh 29.69 in1005.4 mb - 0.00 in0.0 mm 0.00 in0.0 mm
02:50 AM 62.1°F16.7°C 54.4°F12.4°C 76% 3.5 mph WSW5.6 kmh WSW 3.5 mph5.6 kmh 29.69 in1005.4 mb - 0.00 in0.0 mm 0.00 in0.0 mm
02:40 AM 62.5°F16.9°C 54.8°F12.7°C 76% 3.5 mph SW5.6 kmh SW 3.5 mph5.6 kmh 29.69 in1005.4 mb - 0.00 in0.0 mm 0.00 in0.0 mm
02:30 AM 62.9°F17.2°C 54.9°F12.7°C 75% 3.5 mph SW5.6 kmh SW 3.5 mph5.6 kmh 29.70 in1005.8 mb - 0.00 in0.0 mm 0.00 in0.0 mm
02:20 AM 63.5°F17.5°C 55.1°F12.8°C 74% 4.6 mph WSW7.4 kmh WSW 5.8 mph9.3 kmh 29.70 in1005.8 mb - 0.00 in0.0 mm 0.00 in0.0 mm
02:10 AM 63.9°F17.7°C 55.1°F12.8°C 73% 4.6 mph SW7.4 kmh SW 4.6 mph7.4 kmh 29.70 in1005.8 mb - 0.00 in0.0 mm 0.00 in0.0 mm
02:00 AM 64.3°F17.9°C 55.1°F12.8°C 72% 3.5 mph SW5.6 kmh SW 8.1 mph13.0 kmh 29.71 in1006.1 mb - 0.00 in0.0 mm 0.00 in0.0 mm
01:50 AM 64.7°F18.2°C 55.1°F12.8°C 71% 3.5 mph SW5.6 kmh SW 3.5 mph5.6 kmh 29.71 in1006.1 mb - 0.00 in0.0 mm 0.00 in0.0 mm
01:40 AM 64.7°F18.2°C 55.1°F12.8°C 71% 5.8 mph SW9.3 kmh SW 9.2 mph14.8 kmh 29.71 in1006.1 mb - 0.00 in0.0 mm 0.00 in0.0 mm
01:30 AM 64.8°F18.2°C 54.8°F12.7°C 70% 4.6 mph WSW7.4 kmh WSW 5.8 mph9.3 kmh 29.72 in1006.4 mb - 0.00 in0.0 mm 0.00 in0.0 mm
01:20 AM 65.2°F18.4°C 54.8°F12.7°C 69% 3.5 mph SW5.6 kmh SW 6.9 mph11.1 kmh 29.72 in1006.4 mb - 0.00 in0.0 mm 0.00 in0.0 mm
01:10 AM 65.8°F18.8°C 54.5°F12.5°C 67% 4.6 mph SW7.4 kmh SW 6.9 mph11.1 kmh 29.72 in1006.4 mb - 0.00 in0.0 mm 0.00 in0.0 mm
01:00 AM 65.8°F18.8°C 54.5°F12.5°C 67% 4.6 mph W7.4 kmh W 5.8 mph9.3 kmh 29.72 in1006.4 mb - 0.00 in0.0 mm 0.00 in0.0 mm
12:50 AM 66.3°F19.1°C 54.6°F12.6°C 66% 4.6 mph WSW7.4 kmh WSW 4.6 mph7.4 kmh 29.72 in1006.4 mb - 0.00 in0.0 mm 0.00 in0.0 mm
12:40 AM 66.6°F19.2°C 54.9°F12.7°C 66% 2.3 mph SW3.7 kmh SW 4.6 mph7.4 kmh 29.72 in1006.4 mb - 0.00 in0.0 mm 0.00 in0.0 mm
12:30 AM 67.0°F19.4°C 54.8°F12.7°C 65% 4.6 mph SW7.4 kmh SW 4.6 mph7.4 kmh 29.71 in1006.1 mb - 0.00 in0.0 mm 0.00 in0.0 mm
12:20 AM 66.8°F19.3°C 55.1°F12.8°C 66% 4.6 mph SW7.4 kmh SW 11.5 mph18.5 kmh 29.72 in1006.4 mb - 0.00 in0.0 mm 0.00 in0.0 mm
12:10 AM 66.7°F19.3°C 54.6°F12.6°C 65% 4.6 mph SSW7.4 kmh SSW 5.8 mph9.3 kmh 29.71 in1006.1 mb - 0.00 in0.0 mm 0.00 in0.0 mm
12:00 AM 66.9°F19.4°C 54.8°F12.7°C 65% 2.3 mph SSW3.7 kmh SSW 3.5 mph5.6 kmh 29.72 in1006.4 mb - 0.00 in0.0 mm 0.00 in0.0 mm